sensor_id;sensor_type;location;lat;lon;timestamp;temperature;humidity
5334;DHT22;2689;50.954;7.116;2023-04-25T00:00:08;8.00;99.90
5334;DHT22;2689;50.954;7.116;2023-04-25T00:02:35;8.00;99.90
5334;DHT22;2689;50.954;7.116;2023-04-25T00:05:02;8.00;99.90
5334;DHT22;2689;50.954;7.116;2023-04-25T00:07:30;7.90;99.90
5334;DHT22;2689;50.954;7.116;2023-04-25T00:09:58;8.00;99.90
5334;DHT22;2689;50.954;7.116;2023-04-25T00:12:26;7.90;99.90
5334;DHT22;2689;50.954;7.116;2023-04-25T00:14:54;7.90;99.90
5334;DHT22;2689;50.954;7.116;2023-04-25T00:17:22;7.90;99.90
5334;DHT22;2689;50.954;7.116;2023-04-25T00:19:50;7.90;99.90
5334;DHT22;2689;50.954;7.116;2023-04-25T00:22:16;7.90;99.90
5334;DHT22;2689;50.954;7.116;2023-04-25T00:24:43;7.90;99.90
5334;DHT22;2689;50.954;7.116;2023-04-25T00:27:10;7.80;99.90
5334;DHT22;2689;50.954;7.116;2023-04-25T00:29:38;7.80;99.90
5334;DHT22;2689;50.954;7.116;2023-04-25T00:32:05;7.70;99.90
5334;DHT22;2689;50.954;7.116;2023-04-25T00:34:32;7.70;99.90
5334;DHT22;2689;50.954;7.116;2023-04-25T00:36:59;7.60;99.90
5334;DHT22;2689;50.954;7.116;2023-04-25T00:39:27;7.60;99.90
5334;DHT22;2689;50.954;7.116;2023-04-25T00:41:54;7.50;99.90
5334;DHT22;2689;50.954;7.116;2023-04-25T00:44:21;7.50;99.90
5334;DHT22;2689;50.954;7.116;2023-04-25T00:46:50;7.40;99.90
5334;DHT22;2689;50.954;7.116;2023-04-25T00:49:17;7.40;99.90
5334;DHT22;2689;50.954;7.116;2023-04-25T00:51:43;7.30;99.90
5334;DHT22;2689;50.954;7.116;2023-04-25T00:54:11;7.30;99.90
5334;DHT22;2689;50.954;7.116;2023-04-25T00:56:38;7.20;99.90
5334;DHT22;2689;50.954;7.116;2023-04-25T00:59:05;7.20;99.90
5334;DHT22;2689;50.954;7.116;2023-04-25T01:01:32;7.20;99.90
5334;DHT22;2689;50.954;7.116;2023-04-25T01:04:01;7.10;99.90
5334;DHT22;2689;50.954;7.116;2023-04-25T01:06:28;7.10;99.90
5334;DHT22;2689;50.954;7.116;2023-04-25T01:08:56;7.00;99.90
5334;DHT22;2689;50.954;7.116;2023-04-25T01:11:23;7.00;99.90
5334;DHT22;2689;50.954;7.116;2023-04-25T01:13:50;7.00;99.90
5334;DHT22;2689;50.954;7.116;2023-04-25T01:16:17;7.00;99.90
5334;DHT22;2689;50.954;7.116;2023-04-25T01:18:45;7.00;99.90
5334;DHT22;2689;50.954;7.116;2023-04-25T01:21:13;6.90;99.90
5334;DHT22;2689;50.954;7.116;2023-04-25T01:23:40;7.00;99.90
5334;DHT22;2689;50.954;7.116;2023-04-25T01:26:10;7.00;99.90
5334;DHT22;2689;50.954;7.116;2023-04-25T01:28:37;7.10;99.90
5334;DHT22;2689;50.954;7.116;2023-04-25T01:31:06;7.10;99.90
5334;DHT22;2689;50.954;7.116;2023-04-25T01:33:33;7.20;99.90
5334;DHT22;2689;50.954;7.116;2023-04-25T01:36:00;7.30;99.90
5334;DHT22;2689;50.954;7.116;2023-04-25T01:38:28;7.30;99.90
5334;DHT22;2689;50.954;7.116;2023-04-25T01:40:56;7.40;99.90
5334;DHT22;2689;50.954;7.116;2023-04-25T01:43:23;7.40;99.90
5334;DHT22;2689;50.954;7.116;2023-04-25T01:45:50;7.40;99.90
5334;DHT22;2689;50.954;7.116;2023-04-25T01:48:17;7.50;99.90
5334;DHT22;2689;50.954;7.116;2023-04-25T01:50:44;7.50;99.90
5334;DHT22;2689;50.954;7.116;2023-04-25T01:53:13;7.50;99.90
5334;DHT22;2689;50.954;7.116;2023-04-25T01:55:41;7.50;99.90
5334;DHT22;2689;50.954;7.116;2023-04-25T01:58:08;7.50;99.90
5334;DHT22;2689;50.954;7.116;2023-04-25T02:00:38;7.50;99.90
5334;DHT22;2689;50.954;7.116;2023-04-25T02:03:06;7.50;99.90
5334;DHT22;2689;50.954;7.116;2023-04-25T02:05:37;7.50;99.90
5334;DHT22;2689;50.954;7.116;2023-04-25T02:08:06;7.50;99.90
5334;DHT22;2689;50.954;7.116;2023-04-25T02:10:33;7.40;99.90
5334;DHT22;2689;50.954;7.116;2023-04-25T02:13:02;7.40;99.90
5334;DHT22;2689;50.954;7.116;2023-04-25T02:15:29;7.40;99.90
5334;DHT22;2689;50.954;7.116;2023-04-25T02:17:56;7.30;99.90
5334;DHT22;2689;50.954;7.116;2023-04-25T02:20:26;7.30;99.90
5334;DHT22;2689;50.954;7.116;2023-04-25T02:22:54;7.20;99.90
5334;DHT22;2689;50.954;7.116;2023-04-25T02:25:21;7.20;99.90
5334;DHT22;2689;50.954;7.116;2023-04-25T02:27:48;7.10;99.90
5334;DHT22;2689;50.954;7.116;2023-04-25T02:30:18;7.00;99.90
5334;DHT22;2689;50.954;7.116;2023-04-25T02:32:45;7.50;99.90
5334;DHT22;2689;50.954;7.116;2023-04-25T02:35:12;7.00;99.90
5334;DHT22;2689;50.954;7.116;2023-04-25T02:37:40;7.00;99.90
5334;DHT22;2689;50.954;7.116;2023-04-25T02:40:08;7.00;99.90
5334;DHT22;2689;50.954;7.116;2023-04-25T02:42:35;7.00;99.90
5334;DHT22;2689;50.954;7.116;2023-04-25T02:45:02;7.00;99.90
5334;DHT22;2689;50.954;7.116;2023-04-25T02:47:30;7.10;99.90
5334;DHT22;2689;50.954;7.116;2023-04-25T02:49:57;7.10;99.90
5334;DHT22;2689;50.954;7.116;2023-04-25T02:52:24;7.10;99.90
5334;DHT22;2689;50.954;7.116;2023-04-25T02:54:51;7.10;99.90
5334;DHT22;2689;50.954;7.116;2023-04-25T02:57:18;7.10;99.90
5334;DHT22;2689;50.954;7.116;2023-04-25T02:59:44;7.20;99.90
5334;DHT22;2689;50.954;7.116;2023-04-25T03:02:11;7.20;99.90
5334;DHT22;2689;50.954;7.116;2023-04-25T03:04:39;7.20;99.90
5334;DHT22;2689;50.954;7.116;2023-04-25T03:07:07;7.20;99.90
5334;DHT22;2689;50.954;7.116;2023-04-25T03:09:33;7.20;99.90
5334;DHT22;2689;50.954;7.116;2023-04-25T03:12:00;7.20;99.90
5334;DHT22;2689;50.954;7.116;2023-04-25T03:14:27;7.20;99.90
5334;DHT22;2689;50.954;7.116;2023-04-25T03:16:54;7.20;99.90
5334;DHT22;2689;50.954;7.116;2023-04-25T03:19:21;7.30;99.90
5334;DHT22;2689;50.954;7.116;2023-04-25T03:21:49;7.30;99.90
5334;DHT22;2689;50.954;7.116;2023-04-25T03:24:16;7.30;99.90
5334;DHT22;2689;50.954;7.116;2023-04-25T03:26:42;7.50;99.90
5334;DHT22;2689;50.954;7.116;2023-04-25T03:29:09;7.40;99.90
5334;DHT22;2689;50.954;7.116;2023-04-25T03:31:36;7.60;99.90
5334;DHT22;2689;50.954;7.116;2023-04-25T03:34:03;7.40;99.90
5334;DHT22;2689;50.954;7.116;2023-04-25T03:36:30;7.40;99.90
5334;DHT22;2689;50.954;7.116;2023-04-25T03:38:59;7.70;99.90
5334;DHT22;2689;50.954;7.116;2023-04-25T03:41:26;7.40;99.90
5334;DHT22;2689;50.954;7.116;2023-04-25T03:43:53;7.50;99.90
5334;DHT22;2689;50.954;7.116;2023-04-25T03:46:20;7.50;99.90
5334;DHT22;2689;50.954;7.116;2023-04-25T03:48:47;7.50;99.90
5334;DHT22;2689;50.954;7.116;2023-04-25T03:51:14;7.60;99.90
5334;DHT22;2689;50.954;7.116;2023-04-25T03:53:41;7.70;99.90
5334;DHT22;2689;50.954;7.116;2023-04-25T03:56:09;7.60;99.90
5334;DHT22;2689;50.954;7.116;2023-04-25T03:58:36;7.60;99.90
5334;DHT22;2689;50.954;7.116;2023-04-25T04:01:03;7.60;99.90
5334;DHT22;2689;50.954;7.116;2023-04-25T04:03:33;7.60;99.90
5334;DHT22;2689;50.954;7.116;2023-04-25T04:06:00;7.90;99.90
5334;DHT22;2689;50.954;7.116;2023-04-25T04:08:27;7.60;99.90
5334;DHT22;2689;50.954;7.116;2023-04-25T04:10:54;7.70;99.90
5334;DHT22;2689;50.954;7.116;2023-04-25T04:13:22;7.60;99.90
5334;DHT22;2689;50.954;7.116;2023-04-25T04:15:49;7.70;99.90
5334;DHT22;2689;50.954;7.116;2023-04-25T04:18:16;7.70;99.90
5334;DHT22;2689;50.954;7.116;2023-04-25T04:20:42;8.00;99.90
5334;DHT22;2689;50.954;7.116;2023-04-25T04:23:09;7.70;99.90
5334;DHT22;2689;50.954;7.116;2023-04-25T04:25:36;7.70;99.90
5334;DHT22;2689;50.954;7.116;2023-04-25T04:28:03;7.70;99.90
5334;DHT22;2689;50.954;7.116;2023-04-25T04:30:32;7.70;99.90
5334;DHT22;2689;50.954;7.116;2023-04-25T04:33:01;7.70;99.90
5334;DHT22;2689;50.954;7.116;2023-04-25T04:35:29;8.20;99.90
5334;DHT22;2689;50.954;7.116;2023-04-25T04:37:56;7.70;99.90
5334;DHT22;2689;50.954;7.116;2023-04-25T04:40:22;7.80;99.90
5334;DHT22;2689;50.954;7.116;2023-04-25T04:42:51;7.80;99.90
5334;DHT22;2689;50.954;7.116;2023-04-25T04:45:18;7.90;99.90
5334;DHT22;2689;50.954;7.116;2023-04-25T04:47:47;7.90;99.90
5334;DHT22;2689;50.954;7.116;2023-04-25T04:50:15;7.90;99.90
5334;DHT22;2689;50.954;7.116;2023-04-25T04:52:42;7.90;99.90
5334;DHT22;2689;50.954;7.116;2023-04-25T04:55:09;7.90;99.90
5334;DHT22;2689;50.954;7.116;2023-04-25T04:57:35;8.40;99.90
5334;DHT22;2689;50.954;7.116;2023-04-25T05:00:05;8.40;99.90
5334;DHT22;2689;50.954;7.116;2023-04-25T05:02:37;8.00;99.90
5334;DHT22;2689;50.954;7.116;2023-04-25T05:05:05;8.00;99.90
5334;DHT22;2689;50.954;7.116;2023-04-25T05:07:32;8.00;99.90
5334;DHT22;2689;50.954;7.116;2023-04-25T05:09:59;8.00;99.90
5334;DHT22;2689;50.954;7.116;2023-04-25T05:12:26;8.00;99.90
5334;DHT22;2689;50.954;7.116;2023-04-25T05:14:52;8.00;99.90
5334;DHT22;2689;50.954;7.116;2023-04-25T05:17:19;8.00;99.90
5334;DHT22;2689;50.954;7.116;2023-04-25T05:19:46;8.00;99.90
5334;DHT22;2689;50.954;7.116;2023-04-25T05:22:14;8.00;99.90
5334;DHT22;2689;50.954;7.116;2023-04-25T05:24:41;8.10;99.90
5334;DHT22;2689;50.954;7.116;2023-04-25T05:27:08;8.10;99.90
5334;DHT22;2689;50.954;7.116;2023-04-25T05:29:34;8.80;99.90
5334;DHT22;2689;50.954;7.116;2023-04-25T05:32:02;8.10;99.90
5334;DHT22;2689;50.954;7.116;2023-04-25T05:34:28;8.20;99.90
5334;DHT22;2689;50.954;7.116;2023-04-25T05:36:55;8.70;99.90
5334;DHT22;2689;50.954;7.116;2023-04-25T05:39:23;8.20;99.90
5334;DHT22;2689;50.954;7.116;2023-04-25T05:41:50;8.40;99.90
5334;DHT22;2689;50.954;7.116;2023-04-25T05:44:17;8.10;99.90
5334;DHT22;2689;50.954;7.116;2023-04-25T05:46:44;8.10;99.90
5334;DHT22;2689;50.954;7.116;2023-04-25T05:49:10;8.60;99.90
5334;DHT22;2689;50.954;7.116;2023-04-25T05:51:37;8.70;99.90
5334;DHT22;2689;50.954;7.116;2023-04-25T05:54:04;8.20;99.90
5334;DHT22;2689;50.954;7.116;2023-04-25T05:56:32;8.20;99.90
5334;DHT22;2689;50.954;7.116;2023-04-25T05:58:59;8.10;99.90
5334;DHT22;2689;50.954;7.116;2023-04-25T06:01:26;8.20;99.90
5334;DHT22;2689;50.954;7.116;2023-04-25T06:03:53;8.20;99.90
5334;DHT22;2689;50.954;7.116;2023-04-25T06:06:20;8.20;99.90
5334;DHT22;2689;50.954;7.116;2023-04-25T06:08:46;8.30;99.90
5334;DHT22;2689;50.954;7.116;2023-04-25T06:11:13;8.20;99.90
5334;DHT22;2689;50.954;7.116;2023-04-25T06:13:41;8.20;99.90
5334;DHT22;2689;50.954;7.116;2023-04-25T06:16:08;8.40;99.90
5334;DHT22;2689;50.954;7.116;2023-04-25T06:18:35;9.00;99.90
5334;DHT22;2689;50.954;7.116;2023-04-25T06:21:02;8.30;99.90
5334;DHT22;2689;50.954;7.116;2023-04-25T06:23:28;8.40;99.90
5334;DHT22;2689;50.954;7.116;2023-04-25T06:25:55;8.40;99.90
5334;DHT22;2689;50.954;7.116;2023-04-25T06:28:22;8.50;99.90
5334;DHT22;2689;50.954;7.116;2023-04-25T06:30:51;8.60;99.90
5334;DHT22;2689;50.954;7.116;2023-04-25T06:33:18;8.60;99.90
5334;DHT22;2689;50.954;7.116;2023-04-25T06:35:45;8.70;99.90
5334;DHT22;2689;50.954;7.116;2023-04-25T06:38:12;9.10;99.90
5334;DHT22;2689;50.954;7.116;2023-04-25T06:40:39;8.90;99.90
5334;DHT22;2689;50.954;7.116;2023-04-25T06:43:06;9.00;99.90
5334;DHT22;2689;50.954;7.116;2023-04-25T06:45:32;9.10;99.90
5334;DHT22;2689;50.954;7.116;2023-04-25T06:48:00;9.50;99.90
5334;DHT22;2689;50.954;7.116;2023-04-25T06:50:27;9.30;99.90
5334;DHT22;2689;50.954;7.116;2023-04-25T06:52:54;11.10;99.90
5334;DHT22;2689;50.954;7.116;2023-04-25T06:55:21;9.20;99.90
5334;DHT22;2689;50.954;7.116;2023-04-25T06:57:48;10.70;99.90
5334;DHT22;2689;50.954;7.116;2023-04-25T07:00:15;9.60;99.90
5334;DHT22;2689;50.954;7.116;2023-04-25T07:02:42;9.80;99.90
5334;DHT22;2689;50.954;7.116;2023-04-25T07:05:11;10.00;99.90
5334;DHT22;2689;50.954;7.116;2023-04-25T07:07:37;10.20;99.90
5334;DHT22;2689;50.954;7.116;2023-04-25T07:10:05;10.70;99.00
5334;DHT22;2689;50.954;7.116;2023-04-25T07:12:32;10.40;98.50
5334;DHT22;2689;50.954;7.116;2023-04-25T07:14:59;10.60;97.30
5334;DHT22;2689;50.954;7.116;2023-04-25T07:17:31;11.50;97.00
5334;DHT22;2689;50.954;7.116;2023-04-25T07:19:58;11.70;96.20
5334;DHT22;2689;50.954;7.116;2023-04-25T07:22:26;11.00;95.80
5334;DHT22;2689;50.954;7.116;2023-04-25T07:24:53;11.00;95.80
5334;DHT22;2689;50.954;7.116;2023-04-25T07:27:20;11.20;95.50
5334;DHT22;2689;50.954;7.116;2023-04-25T07:29:46;11.20;94.30
5334;DHT22;2689;50.954;7.116;2023-04-25T07:32:13;11.20;93.50
5334;DHT22;2689;50.954;7.116;2023-04-25T07:34:40;12.10;94.50
5334;DHT22;2689;50.954;7.116;2023-04-25T07:37:07;11.40;93.30
5334;DHT22;2689;50.954;7.116;2023-04-25T07:39:35;11.40;92.60
5334;DHT22;2689;50.954;7.116;2023-04-25T07:42:02;11.80;93.10
5334;DHT22;2689;50.954;7.116;2023-04-25T07:44:29;11.20;93.10
5334;DHT22;2689;50.954;7.116;2023-04-25T07:46:56;13.80;94.70
5334;DHT22;2689;50.954;7.116;2023-04-25T07:49:23;12.20;92.20
5334;DHT22;2689;50.954;7.116;2023-04-25T07:51:50;12.70;91.50
5334;DHT22;2689;50.954;7.116;2023-04-25T07:54:17;12.80;89.40
5334;DHT22;2689;50.954;7.116;2023-04-25T07:56:45;12.80;87.90
5334;DHT22;2689;50.954;7.116;2023-04-25T07:59:12;12.30;86.80
5334;DHT22;2689;50.954;7.116;2023-04-25T08:01:38;12.50;88.10
5334;DHT22;2689;50.954;7.116;2023-04-25T08:04:05;12.90;90.40
5334;DHT22;2689;50.954;7.116;2023-04-25T08:06:32;11.60;91.10
5334;DHT22;2689;50.954;7.116;2023-04-25T08:08:59;11.20;91.40
5334;DHT22;2689;50.954;7.116;2023-04-25T08:11:26;11.80;92.20
5334;DHT22;2689;50.954;7.116;2023-04-25T08:13:54;11.20;91.80
5334;DHT22;2689;50.954;7.116;2023-04-25T08:16:21;11.70;92.40
5334;DHT22;2689;50.954;7.116;2023-04-25T08:18:47;13.00;92.30
5334;DHT22;2689;50.954;7.116;2023-04-25T08:21:15;12.70;90.40
5334;DHT22;2689;50.954;7.116;2023-04-25T08:23:41;13.00;90.10
5334;DHT22;2689;50.954;7.116;2023-04-25T08:26:08;12.30;87.70
5334;DHT22;2689;50.954;7.116;2023-04-25T08:28:35;12.50;87.50
5334;DHT22;2689;50.954;7.116;2023-04-25T08:31:03;12.60;84.50
5334;DHT22;2689;50.954;7.116;2023-04-25T08:33:30;12.80;80.80
5334;DHT22;2689;50.954;7.116;2023-04-25T08:35:58;12.40;81.80
5334;DHT22;2689;50.954;7.116;2023-04-25T08:38:25;12.00;82.00
5334;DHT22;2689;50.954;7.116;2023-04-25T08:40:52;11.70;82.20
5334;DHT22;2689;50.954;7.116;2023-04-25T08:43:19;11.60;83.80
5334;DHT22;2689;50.954;7.116;2023-04-25T08:45:47;11.80;83.70
5334;DHT22;2689;50.954;7.116;2023-04-25T08:48:16;11.20;84.70
5334;DHT22;2689;50.954;7.116;2023-04-25T08:50:48;11.00;85.50
5334;DHT22;2689;50.954;7.116;2023-04-25T08:53:16;10.90;85.60
5334;DHT22;2689;50.954;7.116;2023-04-25T08:55:45;11.10;86.70
5334;DHT22;2689;50.954;7.116;2023-04-25T08:58:12;10.70;86.80
5334;DHT22;2689;50.954;7.116;2023-04-25T09:00:39;10.60;88.30
5334;DHT22;2689;50.954;7.116;2023-04-25T09:03:06;10.40;88.20
5334;DHT22;2689;50.954;7.116;2023-04-25T09:05:35;10.30;89.80
5334;DHT22;2689;50.954;7.116;2023-04-25T09:08:03;10.30;90.60
5334;DHT22;2689;50.954;7.116;2023-04-25T09:10:29;10.30;91.00
5334;DHT22;2689;50.954;7.116;2023-04-25T09:13:03;10.40;91.00
5334;DHT22;2689;50.954;7.116;2023-04-25T09:15:31;10.50;89.80
5334;DHT22;2689;50.954;7.116;2023-04-25T09:17:58;10.40;89.90
5334;DHT22;2689;50.954;7.116;2023-04-25T09:20:26;10.40;90.30
5334;DHT22;2689;50.954;7.116;2023-04-25T09:23:03;10.30;89.80
5334;DHT22;2689;50.954;7.116;2023-04-25T09:25:34;10.10;90.00
5334;DHT22;2689;50.954;7.116;2023-04-25T09:28:04;10.10;90.50
5334;DHT22;2689;50.954;7.116;2023-04-25T09:30:32;10.20;91.60
5334;DHT22;2689;50.954;7.116;2023-04-25T09:33:04;10.60;91.20
5334;DHT22;2689;50.954;7.116;2023-04-25T09:35:35;11.10;91.80
5334;DHT22;2689;50.954;7.116;2023-04-25T09:38:09;11.60;89.90
5334;DHT22;2689;50.954;7.116;2023-04-25T09:40:39;11.80;84.40
5334;DHT22;2689;50.954;7.116;2023-04-25T09:43:09;12.40;85.60
5334;DHT22;2689;50.954;7.116;2023-04-25T09:45:41;13.50;81.70
5334;DHT22;2689;50.954;7.116;2023-04-25T09:48:11;13.50;75.40
5334;DHT22;2689;50.954;7.116;2023-04-25T09:50:38;13.00;74.50
5334;DHT22;2689;50.954;7.116;2023-04-25T09:53:07;12.50;75.40
5334;DHT22;2689;50.954;7.116;2023-04-25T09:55:35;12.40;77.50
5334;DHT22;2689;50.954;7.116;2023-04-25T09:58:04;12.50;78.30
5334;DHT22;2689;50.954;7.116;2023-04-25T10:00:32;11.60;79.10
5334;DHT22;2689;50.954;7.116;2023-04-25T10:03:01;12.20;80.80
5334;DHT22;2689;50.954;7.116;2023-04-25T10:05:31;11.30;80.90
5334;DHT22;2689;50.954;7.116;2023-04-25T10:07:59;11.30;83.00
5334;DHT22;2689;50.954;7.116;2023-04-25T10:10:30;11.50;83.20
5334;DHT22;2689;50.954;7.116;2023-04-25T10:13:03;12.00;82.70
5334;DHT22;2689;50.954;7.116;2023-04-25T10:15:31;11.80;79.70
5334;DHT22;2689;50.954;7.116;2023-04-25T10:17:58;11.60;80.10
5334;DHT22;2689;50.954;7.116;2023-04-25T10:20:25;11.50;79.20
5334;DHT22;2689;50.954;7.116;2023-04-25T10:22:54;11.30;78.90
5334;DHT22;2689;50.954;7.116;2023-04-25T10:25:23;11.10;78.50
5334;DHT22;2689;50.954;7.116;2023-04-25T10:27:51;11.00;79.30
5334;DHT22;2689;50.954;7.116;2023-04-25T10:30:18;11.00;79.00
5334;DHT22;2689;50.954;7.116;2023-04-25T10:32:45;10.90;79.20
5334;DHT22;2689;50.954;7.116;2023-04-25T10:35:16;11.40;81.00
5334;DHT22;2689;50.954;7.116;2023-04-25T10:38:00;11.30;81.40
5334;DHT22;2689;50.954;7.116;2023-04-25T10:40:29;11.60;78.60
5334;DHT22;2689;50.954;7.116;2023-04-25T10:43:34;11.70;76.00
5334;DHT22;2689;50.954;7.116;2023-04-25T10:46:02;12.60;76.00
5334;DHT22;2689;50.954;7.116;2023-04-25T10:48:30;14.20;73.10
5334;DHT22;2689;50.954;7.116;2023-04-25T10:51:09;14.80;67.70
5334;DHT22;2689;50.954;7.116;2023-04-25T10:53:36;14.40;65.80
5334;DHT22;2689;50.954;7.116;2023-04-25T10:56:10;13.70;67.30
5334;DHT22;2689;50.954;7.116;2023-04-25T10:58:43;13.30;68.20
5334;DHT22;2689;50.954;7.116;2023-04-25T11:01:09;12.80;69.00
5334;DHT22;2689;50.954;7.116;2023-04-25T11:03:39;12.60;69.50
5334;DHT22;2689;50.954;7.116;2023-04-25T11:06:12;12.30;70.60
5334;DHT22;2689;50.954;7.116;2023-04-25T11:08:49;12.00;72.40
5334;DHT22;2689;50.954;7.116;2023-04-25T11:11:16;11.80;73.80
5334;DHT22;2689;50.954;7.116;2023-04-25T11:13:47;11.60;74.30
5334;DHT22;2689;50.954;7.116;2023-04-25T11:16:14;11.40;73.90
5334;DHT22;2689;50.954;7.116;2023-04-25T11:18:41;11.20;73.30
5334;DHT22;2689;50.954;7.116;2023-04-25T11:21:08;11.10;73.90
5334;DHT22;2689;50.954;7.116;2023-04-25T11:23:35;11.10;75.10
5334;DHT22;2689;50.954;7.116;2023-04-25T11:26:02;11.20;73.80
5334;DHT22;2689;50.954;7.116;2023-04-25T11:28:29;11.20;73.20
5334;DHT22;2689;50.954;7.116;2023-04-25T11:30:57;11.40;72.30
5334;DHT22;2689;50.954;7.116;2023-04-25T11:33:25;11.70;71.00
5334;DHT22;2689;50.954;7.116;2023-04-25T11:35:53;12.00;71.20
5334;DHT22;2689;50.954;7.116;2023-04-25T11:38:21;12.50;70.50
5334;DHT22;2689;50.954;7.116;2023-04-25T11:40:50;12.80;69.00
5334;DHT22;2689;50.954;7.116;2023-04-25T11:43:18;13.10;69.40
5334;DHT22;2689;50.954;7.116;2023-04-25T11:45:46;13.50;69.20
5334;DHT22;2689;50.954;7.116;2023-04-25T11:48:15;13.50;65.40
5334;DHT22;2689;50.954;7.116;2023-04-25T11:50:42;13.30;65.70
5334;DHT22;2689;50.954;7.116;2023-04-25T11:53:09;13.10;65.00
5334;DHT22;2689;50.954;7.116;2023-04-25T11:55:36;12.80;64.00
5334;DHT22;2689;50.954;7.116;2023-04-25T11:58:04;12.70;66.50
5334;DHT22;2689;50.954;7.116;2023-04-25T12:00:31;12.90;67.70
5334;DHT22;2689;50.954;7.116;2023-04-25T12:02:58;13.50;67.30
5334;DHT22;2689;50.954;7.116;2023-04-25T12:05:28;14.30;67.80
5334;DHT22;2689;50.954;7.116;2023-04-25T12:07:56;15.80;62.00
5334;DHT22;2689;50.954;7.116;2023-04-25T12:10:24;16.70;56.90
5334;DHT22;2689;50.954;7.116;2023-04-25T12:12:51;16.80;54.30
5334;DHT22;2689;50.954;7.116;2023-04-25T12:15:24;17.30;55.40
5334;DHT22;2689;50.954;7.116;2023-04-25T12:17:52;18.10;51.40
5334;DHT22;2689;50.954;7.116;2023-04-25T12:20:21;18.20;49.10
5334;DHT22;2689;50.954;7.116;2023-04-25T12:22:51;18.10;47.60
5334;DHT22;2689;50.954;7.116;2023-04-25T12:25:33;18.20;48.30
5334;DHT22;2689;50.954;7.116;2023-04-25T12:28:10;18.50;47.20
5334;DHT22;2689;50.954;7.116;2023-04-25T12:30:52;18.90;47.80
5334;DHT22;2689;50.954;7.116;2023-04-25T12:33:19;19.40;45.40
5334;DHT22;2689;50.954;7.116;2023-04-25T12:35:46;20.00;45.20
5334;DHT22;2689;50.954;7.116;2023-04-25T12:38:22;20.10;43.40
5334;DHT22;2689;50.954;7.116;2023-04-25T12:40:49;19.40;43.40
5334;DHT22;2689;50.954;7.116;2023-04-25T12:43:16;18.50;44.30
5334;DHT22;2689;50.954;7.116;2023-04-25T12:45:43;17.50;45.60
5334;DHT22;2689;50.954;7.116;2023-04-25T12:48:10;17.20;46.50
5334;DHT22;2689;50.954;7.116;2023-04-25T12:50:36;16.70;47.10
5334;DHT22;2689;50.954;7.116;2023-04-25T12:53:03;16.30;48.40
5334;DHT22;2689;50.954;7.116;2023-04-25T12:55:31;15.70;49.00
5334;DHT22;2689;50.954;7.116;2023-04-25T12:57:58;15.00;50.10
5334;DHT22;2689;50.954;7.116;2023-04-25T13:00:25;14.60;51.90
5334;DHT22;2689;50.954;7.116;2023-04-25T13:02:52;14.00;52.20
5334;DHT22;2689;50.954;7.116;2023-04-25T13:05:19;13.60;53.80
5334;DHT22;2689;50.954;7.116;2023-04-25T13:07:46;13.40;55.60
5334;DHT22;2689;50.954;7.116;2023-04-25T13:10:12;13.20;56.40
5334;DHT22;2689;50.954;7.116;2023-04-25T13:12:40;12.90;57.00
5334;DHT22;2689;50.954;7.116;2023-04-25T13:15:08;12.60;57.50
5334;DHT22;2689;50.954;7.116;2023-04-25T13:17:36;12.50;59.20
5334;DHT22;2689;50.954;7.116;2023-04-25T13:20:04;12.40;58.00
5334;DHT22;2689;50.954;7.116;2023-04-25T13:22:34;12.30;58.90
5334;DHT22;2689;50.954;7.116;2023-04-25T13:25:02;12.20;58.20
5334;DHT22;2689;50.954;7.116;2023-04-25T13:27:29;12.20;58.30
5334;DHT22;2689;50.954;7.116;2023-04-25T13:29:59;12.70;58.40
5334;DHT22;2689;50.954;7.116;2023-04-25T13:32:26;14.00;53.80
5334;DHT22;2689;50.954;7.116;2023-04-25T13:34:53;14.60;53.60
5334;DHT22;2689;50.954;7.116;2023-04-25T13:37:21;15.10;51.40
5334;DHT22;2689;50.954;7.116;2023-04-25T13:39:49;16.50;52.10
5334;DHT22;2689;50.954;7.116;2023-04-25T13:42:16;17.60;49.60
5334;DHT22;2689;50.954;7.116;2023-04-25T13:44:43;18.90;49.70
5334;DHT22;2689;50.954;7.116;2023-04-25T13:47:11;20.30;49.10
5334;DHT22;2689;50.954;7.116;2023-04-25T13:49:38;20.10;50.10
5334;DHT22;2689;50.954;7.116;2023-04-25T13:52:05;21.40;49.70
5334;DHT22;2689;50.954;7.116;2023-04-25T13:54:31;20.50;49.90
5334;DHT22;2689;50.954;7.116;2023-04-25T13:56:58;19.90;50.10
5334;DHT22;2689;50.954;7.116;2023-04-25T13:59:25;19.70;53.00
5334;DHT22;2689;50.954;7.116;2023-04-25T14:01:52;18.10;51.60
5334;DHT22;2689;50.954;7.116;2023-04-25T14:04:20;17.00;52.70
5334;DHT22;2689;50.954;7.116;2023-04-25T14:06:47;18.20;54.90
5334;DHT22;2689;50.954;7.116;2023-04-25T14:09:14;18.10;55.40
5334;DHT22;2689;50.954;7.116;2023-04-25T14:11:41;18.10;52.60
5334;DHT22;2689;50.954;7.116;2023-04-25T14:14:08;17.90;52.70
5334;DHT22;2689;50.954;7.116;2023-04-25T14:16:34;18.00;54.80
5334;DHT22;2689;50.954;7.116;2023-04-25T14:19:01;18.10;53.20
5334;DHT22;2689;50.954;7.116;2023-04-25T14:21:30;18.10;53.50
5334;DHT22;2689;50.954;7.116;2023-04-25T14:23:58;18.00;50.10
5334;DHT22;2689;50.954;7.116;2023-04-25T14:26:25;17.60;50.30
5334;DHT22;2689;50.954;7.116;2023-04-25T14:28:52;17.20;50.90
5334;DHT22;2689;50.954;7.116;2023-04-25T14:31:18;16.60;51.80
5334;DHT22;2689;50.954;7.116;2023-04-25T14:33:46;15.70;51.60
5334;DHT22;2689;50.954;7.116;2023-04-25T14:36:13;15.20;54.10
5334;DHT22;2689;50.954;7.116;2023-04-25T14:38:42;14.80;55.30
5334;DHT22;2689;50.954;7.116;2023-04-25T14:41:09;14.70;56.60
5334;DHT22;2689;50.954;7.116;2023-04-25T14:43:36;14.30;56.40
5334;DHT22;2689;50.954;7.116;2023-04-25T14:46:03;14.20;57.30
5334;DHT22;2689;50.954;7.116;2023-04-25T14:48:29;14.20;57.70
5334;DHT22;2689;50.954;7.116;2023-04-25T14:50:56;14.30;57.50
5334;DHT22;2689;50.954;7.116;2023-04-25T14:53:23;14.30;55.70
5334;DHT22;2689;50.954;7.116;2023-04-25T14:55:51;14.30;55.80
5334;DHT22;2689;50.954;7.116;2023-04-25T14:58:19;14.30;57.10
5334;DHT22;2689;50.954;7.116;2023-04-25T15:00:46;14.50;57.30
5334;DHT22;2689;50.954;7.116;2023-04-25T15:03:13;14.70;55.20
5334;DHT22;2689;50.954;7.116;2023-04-25T15:05:42;14.70;56.30
5334;DHT22;2689;50.954;7.116;2023-04-25T15:08:08;14.70;54.00
5334;DHT22;2689;50.954;7.116;2023-04-25T15:10:35;14.60;53.30
5334;DHT22;2689;50.954;7.116;2023-04-25T15:13:04;14.60;52.70
5334;DHT22;2689;50.954;7.116;2023-04-25T15:15:31;14.50;51.70
5334;DHT22;2689;50.954;7.116;2023-04-25T15:17:57;14.30;52.40
5334;DHT22;2689;50.954;7.116;2023-04-25T15:20:24;14.20;52.60
5334;DHT22;2689;50.954;7.116;2023-04-25T15:22:52;14.10;53.10
5334;DHT22;2689;50.954;7.116;2023-04-25T15:25:19;14.10;54.20
5334;DHT22;2689;50.954;7.116;2023-04-25T15:27:46;14.10;54.20
5334;DHT22;2689;50.954;7.116;2023-04-25T15:30:15;14.10;54.60
5334;DHT22;2689;50.954;7.116;2023-04-25T15:32:43;14.10;55.60
5334;DHT22;2689;50.954;7.116;2023-04-25T15:35:10;14.30;57.40
5334;DHT22;2689;50.954;7.116;2023-04-25T15:37:37;14.50;59.00
5334;DHT22;2689;50.954;7.116;2023-04-25T15:40:07;14.60;58.10
5334;DHT22;2689;50.954;7.116;2023-04-25T15:42:35;14.50;57.30
5334;DHT22;2689;50.954;7.116;2023-04-25T15:45:02;14.50;58.20
5334;DHT22;2689;50.954;7.116;2023-04-25T15:47:31;14.70;58.10
5334;DHT22;2689;50.954;7.116;2023-04-25T15:49:58;14.90;59.00
5334;DHT22;2689;50.954;7.116;2023-04-25T15:52:25;15.00;58.00
5334;DHT22;2689;50.954;7.116;2023-04-25T15:54:53;15.00;57.00
5334;DHT22;2689;50.954;7.116;2023-04-25T15:57:20;14.70;57.40
5334;DHT22;2689;50.954;7.116;2023-04-25T15:59:48;14.40;58.70
5334;DHT22;2689;50.954;7.116;2023-04-25T16:02:15;14.20;59.00
5334;DHT22;2689;50.954;7.116;2023-04-25T16:04:49;14.00;59.50
5334;DHT22;2689;50.954;7.116;2023-04-25T16:07:19;13.80;60.50
5334;DHT22;2689;50.954;7.116;2023-04-25T16:09:48;13.80;60.40
5334;DHT22;2689;50.954;7.116;2023-04-25T16:12:18;13.70;59.80